Time;durP1;ratioP1;P1;durP2;ratioP2;P2;SDS_P1;SDS_P2;PMS_P1;PMS_P2;Temp;Humidity;BMP_temperature;BMP_pressure;BME280_temperature;BME280_humidity;BME280_pressure;Samples;Min_cycle;Max_cycle;Signal;HPM_P1;HPM_P2
2021/05/21 00:01:56;;;;;;;3.25;3.05;;;10.60;99.90;;;;;;5108490;28;20220;-69
2021/05/21 00:04:23;;;;;;;3.15;2.95;;;10.50;99.90;;;;;;5107882;28;20196;-69
2021/05/21 00:06:49;;;;;;;3.20;3.00;;;10.50;99.90;;;;;;5108733;28;20644;-69
2021/05/21 00:09:15;;;;;;;3.40;3.20;;;10.40;99.90;;;;;;5108311;28;20214;-70
2021/05/21 00:11:42;;;;;;;3.42;3.20;;;10.50;99.90;;;;;;5107793;28;20207;-69
2021/05/21 00:14:09;;;;;;;4.20;3.90;;;10.50;99.90;;;;;;5107431;28;20196;-69
2021/05/21 00:16:35;;;;;;;3.17;2.97;;;10.60;99.90;;;;;;5108490;28;20196;-69
2021/05/21 00:19:02;;;;;;;3.83;3.53;;;10.50;99.90;;;;;;5108762;28;20262;-69
2021/05/21 00:21:28;;;;;;;3.30;3.00;;;10.50;99.90;;;;;;5108173;28;20555;-69
2021/05/21 00:23:54;;;;;;;3.45;3.25;;;10.50;99.90;;;;;;5108304;28;20597;-69
2021/05/21 00:26:21;;;;;;;3.10;2.90;;;10.40;99.90;;;;;;5107650;28;20675;-69
2021/05/21 00:28:47;;;;;;;3.30;3.10;;;10.40;99.90;;;;;;5108248;28;20294;-69
2021/05/21 00:31:14;;;;;;;3.35;3.05;;;10.30;99.90;;;;;;5107552;28;20207;-70
2021/05/21 00:33:40;;;;;;;3.25;2.80;;;10.30;99.90;;;;;;5103526;28;20243;-69
2021/05/21 00:36:07;;;;;;;3.75;3.42;;;10.30;99.90;;;;;;5107643;28;20202;-70
2021/05/21 00:38:33;;;;;;;3.55;3.25;;;10.30;99.90;;;;;;5108083;28;20750;-70
2021/05/21 00:41:00;;;;;;;3.80;3.58;;;10.30;99.90;;;;;;5108007;28;20728;-70
2021/05/21 00:43:26;;;;;;;4.93;4.10;;;10.20;99.90;;;;;;5106608;28;20981;-70
2021/05/21 00:45:53;;;;;;;4.55;4.15;;;10.30;99.90;;;;;;5108065;28;20202;-69
2021/05/21 00:48:21;;;;;;;3.85;3.58;;;10.30;99.90;;;;;;5107685;28;20206;-70
2021/05/21 00:50:49;;;;;;;4.30;3.90;;;10.20;99.90;;;;;;5108061;28;20288;-70
2021/05/21 00:53:17;;;;;;;4.13;3.83;;;10.30;99.90;;;;;;5106733;28;20230;-70
2021/05/21 00:55:43;;;;;;;3.88;3.60;;;10.30;99.90;;;;;;5107336;28;20286;-70
2021/05/21 00:58:10;;;;;;;4.55;4.15;;;10.30;99.90;;;;;;5107505;28;20298;-70
2021/05/21 01:00:36;;;;;;;3.28;2.88;;;10.40;99.90;;;;;;5107066;28;20753;-70
2021/05/21 01:03:02;;;;;;;3.40;3.10;;;10.40;99.90;;;;;;5107143;28;20672;-69
2021/05/21 01:05:30;;;;;;;3.63;3.42;;;10.40;99.90;;;;;;5106965;28;20203;-70
2021/05/21 01:07:56;;;;;;;4.63;4.32;;;10.30;99.90;;;;;;5107409;28;20221;-69
2021/05/21 01:10:22;;;;;;;3.45;3.25;;;10.30;99.90;;;;;;5107610;28;20199;-69
2021/05/21 01:12:49;;;;;;;4.00;3.70;;;10.30;99.90;;;;;;5107177;28;20277;-69
2021/05/21 01:15:16;;;;;;;4.70;3.47;;;10.30;99.90;;;;;;5107475;28;20200;-70
2021/05/21 01:17:42;;;;;;;4.43;4.00;;;10.40;99.90;;;;;;5107151;28;20250;-69
2021/05/21 01:20:12;;;;;;;5.13;3.60;;;10.50;99.90;;;;;;5107746;28;20661;-69
2021/05/21 01:22:39;;;;;;;3.35;3.15;;;10.60;99.90;;;;;;5107952;28;20235;-70
2021/05/21 01:25:07;;;;;;;4.13;3.75;;;10.70;99.90;;;;;;5106473;28;20210;-69
2021/05/21 01:27:34;;;;;;;3.58;3.30;;;10.80;99.90;;;;;;5107408;28;20294;-70
2021/05/21 01:30:00;;;;;;;3.30;2.80;;;10.80;99.90;;;;;;5107353;28;20690;-69
2021/05/21 01:32:27;;;;;;;3.08;2.85;;;10.70;99.90;;;;;;5106669;28;20252;-69
2021/05/21 01:34:53;;;;;;;3.50;3.20;;;10.70;99.90;;;;;;5106592;28;20287;-69
2021/05/21 01:37:20;;;;;;;4.00;3.10;;;10.60;99.90;;;;;;5106938;28;20302;-70
2021/05/21 01:39:50;;;;;;;3.63;3.33;;;10.40;99.90;;;;;;5106923;28;20290;-70
2021/05/21 01:42:16;;;;;;;5.03;4.60;;;10.40;99.90;;;;;;5106949;28;20242;-69
2021/05/21 01:44:43;;;;;;;3.63;3.40;;;10.20;99.90;;;;;;5106015;28;20203;-70
2021/05/21 01:47:11;;;;;;;4.55;3.75;;;10.20;99.90;;;;;;5106934;28;20206;-69
2021/05/21 01:49:37;;;;;;;4.28;3.88;;;10.20;99.90;;;;;;5106746;28;20214;-70
2021/05/21 01:52:04;;;;;;;3.35;3.15;;;10.10;99.90;;;;;;5106517;28;20968;-70
2021/05/21 01:54:31;;;;;;;3.72;3.42;;;10.10;99.90;;;;;;5106074;28;20210;-69
2021/05/21 01:56:58;;;;;;;3.33;3.13;;;10.00;99.90;;;;;;5106794;28;20669;-70
2021/05/21 01:59:25;;;;;;;3.45;3.13;;;9.90;99.90;;;;;;5105691;28;20204;-70
2021/05/21 02:01:53;;;;;;;4.25;3.95;;;10.00;99.90;;;;;;5096543;28;20268;-69
2021/05/21 02:04:27;;;;;;;3.75;3.55;;;10.10;99.90;;;;;;5094989;28;20208;-70
2021/05/21 02:06:54;;;;;;;3.88;3.40;;;10.10;99.90;;;;;;5100656;28;20191;-69
2021/05/21 02:09:20;;;;;;;2.45;2.25;;;10.00;99.90;;;;;;5106533;28;20212;-70
2021/05/21 02:11:46;;;;;;;3.58;3.28;;;10.10;99.90;;;;;;5106430;28;20572;-70
2021/05/21 02:14:15;;;;;;;2.97;2.72;;;10.10;99.90;;;;;;5106705;28;20744;-70
2021/05/21 02:16:41;;;;;;;3.25;3.05;;;10.10;99.90;;;;;;5106021;28;20208;-69
2021/05/21 02:19:07;;;;;;;3.67;3.38;;;10.10;99.90;;;;;;5106848;28;20200;-69
2021/05/21 02:21:34;;;;;;;3.28;3.08;;;10.10;99.90;;;;;;5106529;28;20322;-69
2021/05/21 02:24:03;;;;;;;3.60;3.38;;;10.10;99.90;;;;;;5106506;28;20290;-69
2021/05/21 02:26:30;;;;;;;2.95;2.75;;;10.00;99.90;;;;;;5105822;28;20200;-70
2021/05/21 02:28:56;;;;;;;3.30;3.10;;;10.00;99.90;;;;;;5106506;28;20255;-69
2021/05/21 02:31:24;;;;;;;4.25;3.05;;;10.00;99.90;;;;;;5106374;28;20199;-69
2021/05/21 02:33:50;;;;;;;3.63;3.33;;;10.10;99.90;;;;;;5105726;28;20212;-69
2021/05/21 02:36:16;;;;;;;3.38;3.08;;;10.10;99.90;;;;;;5105884;28;20210;-69
2021/05/21 02:38:43;;;;;;;2.55;2.45;;;10.10;99.90;;;;;;5106322;28;20235;-69
2021/05/21 02:41:09;;;;;;;3.10;2.80;;;10.00;99.90;;;;;;5106257;28;20223;-69
2021/05/21 02:43:35;;;;;;;3.42;3.22;;;10.00;99.90;;;;;;5106633;28;20287;-69
2021/05/21 02:46:02;;;;;;;4.20;3.90;;;9.80;99.90;;;;;;5105007;28;20204;-69
2021/05/21 02:48:29;;;;;;;3.85;3.65;;;9.80;99.90;;;;;;5106261;28;20798;-70
2021/05/21 02:50:55;;;;;;;3.45;3.15;;;9.80;99.90;;;;;;5107123;28;20275;-69
2021/05/21 02:53:22;;;;;;;3.58;2.92;;;9.80;99.90;;;;;;5105907;28;20677;-69
2021/05/21 02:55:48;;;;;;;3.50;3.20;;;9.70;99.90;;;;;;5105612;28;20247;-70
2021/05/21 02:58:14;;;;;;;3.40;3.20;;;9.70;99.90;;;;;;5106454;28;20345;-70
2021/05/21 03:00:41;;;;;;;3.70;3.45;;;9.70;99.90;;;;;;5105949;28;20208;-70
2021/05/21 03:03:07;;;;;;;3.17;2.88;;;9.60;99.90;;;;;;5106268;28;20318;-70
2021/05/21 03:05:34;;;;;;;3.63;3.42;;;9.50;99.90;;;;;;5105335;28;20291;-70
2021/05/21 03:08:01;;;;;;;3.78;3.45;;;9.50;99.90;;;;;;5106570;28;20218;-69
2021/05/21 03:10:28;;;;;;;3.72;3.42;;;9.50;99.90;;;;;;5105798;28;20739;-70
2021/05/21 03:12:54;;;;;;;3.92;3.47;;;9.50;99.90;;;;;;5108196;28;20288;-69
2021/05/21 03:15:22;;;;;;;3.65;3.45;;;9.50;99.90;;;;;;5109625;28;20196;-70
2021/05/21 03:17:48;;;;;;;4.00;3.63;;;9.60;99.90;;;;;;5110048;28;20699;-70
2021/05/21 03:20:15;;;;;;;4.13;3.50;;;9.60;99.90;;;;;;5110261;28;20847;-69
2021/05/21 03:22:42;;;;;;;3.90;3.70;;;9.60;99.90;;;;;;5110283;28;20640;-69
2021/05/21 03:25:10;;;;;;;3.72;3.42;;;9.60;99.90;;;;;;5109851;28;20199;-69
2021/05/21 03:27:37;;;;;;;3.92;3.63;;;9.60;99.90;;;;;;5109786;28;20294;-69
2021/05/21 03:30:06;;;;;;;4.07;3.78;;;9.50;99.90;;;;;;5110096;28;20315;-69
2021/05/21 03:32:32;;;;;;;3.90;3.60;;;9.50;99.90;;;;;;5109465;28;20192;-70
2021/05/21 03:34:59;;;;;;;3.83;3.30;;;9.40;99.90;;;;;;5104958;28;20200;-69
2021/05/21 03:37:25;;;;;;;3.38;3.17;;;9.40;99.90;;;;;;5112001;28;20825;-69
2021/05/21 03:39:52;;;;;;;3.75;3.45;;;9.40;99.90;;;;;;5107700;28;20191;-70
2021/05/21 03:42:19;;;;;;;3.65;3.40;;;9.40;99.90;;;;;;5109703;28;20632;-69
2021/05/21 03:44:45;;;;;;;3.92;3.58;;;9.50;99.90;;;;;;5109165;28;20219;-70
2021/05/21 03:47:12;;;;;;;3.00;2.80;;;9.40;99.90;;;;;;5108386;28;20687;-70
2021/05/21 03:49:38;;;;;;;3.83;3.53;;;9.40;99.90;;;;;;5108872;28;20204;-70
2021/05/21 03:52:05;;;;;;;3.65;3.35;;;9.50;99.90;;;;;;5108448;28;20263;-70
2021/05/21 03:54:31;;;;;;;3.10;2.90;;;9.70;99.90;;;;;;5108759;28;20211;-70
2021/05/21 03:56:58;;;;;;;2.88;2.67;;;9.70;99.90;;;;;;5108764;28;20244;-69
2021/05/21 03:59:27;;;;;;;3.08;2.90;;;9.70;99.90;;;;;;5109065;28;20259;-70
2021/05/21 04:01:53;;;;;;;3.40;3.10;;;9.70;99.90;;;;;;5108724;28;20245;-70
2021/05/21 04:04:20;;;;;;;4.75;4.35;;;9.80;99.90;;;;;;5109150;28;20208;-70
2021/05/21 04:06:47;;;;;;;3.00;2.80;;;9.80;99.90;;;;;;5108411;28;20211;-70
2021/05/21 04:09:13;;;;;;;3.92;3.60;;;9.80;99.90;;;;;;5108480;28;20198;-69
2021/05/21 04:11:40;;;;;;;3.20;3.00;;;10.00;99.90;;;;;;5108805;28;20249;-69
2021/05/21 04:14:08;;;;;;;3.20;2.90;;;10.20;99.90;;;;;;5108811;28;20295;-70
2021/05/21 04:16:35;;;;;;;3.90;3.63;;;10.30;99.90;;;;;;5108800;28;20268;-70
2021/05/21 04:19:02;;;;;;;3.28;3.08;;;10.30;99.90;;;;;;5108389;28;20199;-70
2021/05/21 04:21:28;;;;;;;4.80;3.72;;;10.40;99.90;;;;;;5108186;28;20232;-69
2021/05/21 04:23:56;;;;;;;3.20;2.90;;;10.50;99.90;;;;;;5107729;28;20675;-70
2021/05/21 04:26:23;;;;;;;3.60;3.40;;;10.50;99.90;;;;;;5108322;28;20968;-70
2021/05/21 04:28:50;;;;;;;3.58;3.28;;;10.50;99.90;;;;;;5108607;28;20207;-69
2021/05/21 04:31:18;;;;;;;3.33;3.00;;;10.60;99.90;;;;;;5107785;28;20235;-70
2021/05/21 04:33:45;;;;;;;3.83;3.53;;;10.60;99.90;;;;;;5108387;28;20709;-70
2021/05/21 04:36:12;;;;;;;3.50;3.20;;;10.60;99.90;;;;;;5108065;28;20631;-70
2021/05/21 04:38:39;;;;;;;3.15;2.95;;;10.70;99.90;;;;;;5108147;28;20684;-70
2021/05/21 04:41:06;;;;;;;2.80;2.60;;;10.70;99.90;;;;;;5107723;28;20235;-70
2021/05/21 04:43:32;;;;;;;3.60;3.35;;;10.70;99.90;;;;;;5108085;28;20204;-70
2021/05/21 04:46:01;;;;;;;3.33;3.03;;;10.80;99.90;;;;;;5108126;28;20211;-70
2021/05/21 04:48:29;;;;;;;3.55;3.25;;;10.90;99.90;;;;;;5107601;28;20282;-70
2021/05/21 04:50:57;;;;;;;2.90;2.60;;;11.10;99.90;;;;;;5106828;28;20291;-70
2021/05/21 04:53:24;;;;;;;5.35;3.08;;;11.20;99.90;;;;;;5107618;28;20591;-69
2021/05/21 04:55:51;;;;;;;3.00;2.80;;;11.30;99.90;;;;;;5107795;28;20204;-69
2021/05/21 04:58:18;;;;;;;2.80;2.60;;;11.40;99.90;;;;;;5107727;28;20204;-69
2021/05/21 05:00:45;;;;;;;3.00;2.40;;;11.40;99.90;;;;;;5107377;28;20253;-70
2021/05/21 05:03:17;;;;;;;3.58;2.65;;;11.50;99.90;;;;;;5107664;28;20200;-70
2021/05/21 05:05:45;;;;;;;3.20;2.90;;;11.70;99.90;;;;;;5107619;28;20546;-69
2021/05/21 05:08:14;;;;;;;2.70;2.50;;;11.80;99.90;;;;;;5107483;28;20219;-69
2021/05/21 05:10:41;;;;;;;2.65;2.30;;;12.00;99.90;;;;;;5108229;28;20200;-70
2021/05/21 05:13:08;;;;;;;3.85;2.80;;;12.10;99.90;;;;;;5107436;28;20286;-70
2021/05/21 05:15:35;;;;;;;2.45;2.25;;;12.20;99.90;;;;;;5107067;28;20207;-69
2021/05/21 05:18:02;;;;;;;2.10;2.00;;;12.50;99.50;;;;;;5107514;28;20238;-69
2021/05/21 05:20:29;;;;;;;2.08;1.95;;;12.70;97.80;;;;;;5106997;28;20925;-69
2021/05/21 05:22:57;;;;;;;2.75;2.55;;;12.70;97.50;;;;;;5107957;28;20588;-69
2021/05/21 05:25:23;;;;;;;2.55;2.35;;;12.80;97.50;;;;;;5107087;28;20294;-70
2021/05/21 05:27:51;;;;;;;2.25;2.15;;;12.80;97.00;;;;;;5107346;28;20283;-69
2021/05/21 05:30:18;;;;;;;2.40;1.80;;;12.90;96.80;;;;;;5107009;28;20287;-69
2021/05/21 05:32:44;;;;;;;1.98;1.88;;;13.00;96.40;;;;;;5106715;28;20211;-70
2021/05/21 05:35:11;;;;;;;2.17;2.03;;;13.10;95.50;;;;;;5106373;28;20210;-69
2021/05/21 05:37:38;;;;;;;1.80;1.70;;;13.30;95.40;;;;;;5106699;28;20637;-70
2021/05/21 05:40:07;;;;;;;2.10;2.00;;;13.40;95.10;;;;;;5106311;28;20203;-69
2021/05/21 05:42:33;;;;;;;2.25;1.95;;;13.50;94.60;;;;;;5106652;28;20628;-70
2021/05/21 05:45:00;;;;;;;1.88;1.77;;;13.50;94.20;;;;;;5106601;28;20203;-71
2021/05/21 05:47:26;;;;;;;2.10;1.90;;;13.50;94.60;;;;;;5107270;28;20204;-71
2021/05/21 05:49:52;;;;;;;2.22;2.00;;;13.50;94.90;;;;;;5109873;28;20202;-70
2021/05/21 05:52:19;;;;;;;2.08;1.92;;;13.50;94.90;;;;;;5110373;28;20195;-71
2021/05/21 05:54:45;;;;;;;3.15;1.92;;;13.60;94.70;;;;;;5107263;28;20667;-71
2021/05/21 05:57:12;;;;;;;1.92;1.83;;;13.60;94.80;;;;;;5106944;28;20203;-71
2021/05/21 05:59:39;;;;;;;1.67;1.58;;;13.70;95.00;;;;;;5107388;28;20290;-71
2021/05/21 06:02:06;;;;;;;2.58;1.95;;;13.80;94.60;;;;;;5106408;28;20231;-71
2021/05/21 06:04:32;;;;;;;3.35;1.85;;;13.90;94.80;;;;;;5106463;28;20207;-71
2021/05/21 06:06:58;;;;;;;2.88;1.95;;;14.00;94.60;;;;;;5106188;28;20251;-71
2021/05/21 06:09:27;;;;;;;1.83;1.73;;;14.10;95.20;;;;;;5106461;28;20207;-71
2021/05/21 06:11:54;;;;;;;2.30;2.10;;;14.40;95.10;;;;;;5106916;28;20203;-71
2021/05/21 06:14:21;;;;;;;2.33;2.22;;;14.60;94.70;;;;;;5106189;28;20206;-71
2021/05/21 06:16:47;;;;;;;2.47;1.75;;;14.80;94.30;;;;;;5106718;28;20303;-71
2021/05/21 06:19:13;;;;;;;2.00;1.90;;;14.90;94.10;;;;;;5106567;28;20242;-71
2021/05/21 06:21:40;;;;;;;2.10;1.95;;;14.90;93.90;;;;;;5106858;28;20227;-71
2021/05/21 06:24:07;;;;;;;2.15;2.00;;;15.00;93.70;;;;;;5106408;28;20203;-71
2021/05/21 06:26:37;;;;;;;2.10;2.00;;;14.90;93.60;;;;;;5106823;28;20320;-71
2021/05/21 06:29:03;;;;;;;2.00;1.90;;;15.10;93.00;;;;;;5092875;28;20732;-71
2021/05/21 06:31:31;;;;;;;3.08;2.40;;;15.20;92.90;;;;;;5101249;28;20214;-71
2021/05/21 06:33:57;;;;;;;2.00;1.77;;;15.10;92.70;;;;;;5099067;28;20214;-71
2021/05/21 06:36:25;;;;;;;2.25;2.10;;;15.10;93.50;;;;;;5093994;28;20208;-71
2021/05/21 06:38:51;;;;;;;2.10;2.00;;;15.20;92.50;;;;;;5102306;28;20606;-71
2021/05/21 06:41:18;;;;;;;2.15;1.95;;;15.10;92.00;;;;;;5101166;28;20223;-71
2021/05/21 06:43:44;;;;;;;1.95;1.77;;;15.20;92.00;;;;;;5104286;28;20214;-71
2021/05/21 06:46:10;;;;;;;2.38;2.00;;;15.10;92.20;;;;;;5099899;28;20847;-71
2021/05/21 06:48:38;;;;;;;1.83;1.73;;;15.00;92.00;;;;;;5101426;28;20315;-71
2021/05/21 06:51:06;;;;;;;2.55;1.65;;;14.90;91.90;;;;;;5106190;28;20216;-71
2021/05/21 06:53:33;;;;;;;2.22;2.10;;;15.00;92.40;;;;;;5103106;28;20953;-71
2021/05/21 06:56:00;;;;;;;3.15;2.17;;;15.20;91.50;;;;;;5099312;28;20201;-71
2021/05/21 06:58:28;;;;;;;2.53;2.33;;;15.30;91.20;;;;;;5108905;28;20207;-71
2021/05/21 07:00:57;;;;;;;8.77;2.40;;;15.10;91.30;;;;;;5098238;28;20616;-71
2021/05/21 07:03:27;;;;;;;2.20;2.10;;;15.20;91.50;;;;;;5108752;28;20203;-71
2021/05/21 07:05:55;;;;;;;2.67;2.13;;;15.30;90.90;;;;;;5097536;28;20196;-71
2021/05/21 07:08:22;;;;;;;1.63;1.52;;;15.30;91.40;;;;;;5101523;28;20243;-71
2021/05/21 07:10:48;;;;;;;2.42;2.22;;;15.40;90.50;;;;;;5108335;28;20208;-71
2021/05/21 07:13:16;;;;;;;1.98;1.88;;;15.50;90.70;;;;;;5109349;28;20210;-71
2021/05/21 07:15:43;;;;;;;2.20;2.10;;;15.50;90.20;;;;;;5103584;28;20290;-71
2021/05/21 07:18:09;;;;;;;4.20;2.00;;;15.60;90.40;;;;;;5104550;28;20727;-71
2021/05/21 07:20:36;;;;;;;2.03;1.90;;;15.60;90.50;;;;;;5094069;28;20208;-71
2021/05/21 07:23:04;;;;;;;2.45;1.80;;;15.50;90.40;;;;;;5098368;28;20235;-71
2021/05/21 07:25:30;;;;;;;1.98;1.70;;;15.30;90.50;;;;;;5096287;28;20200;-70
2021/05/21 07:27:57;;;;;;;3.67;2.05;;;15.40;90.80;;;;;;5092269;28;20277;-70
2021/05/21 07:30:23;;;;;;;2.83;1.70;;;15.40;90.80;;;;;;5100251;28;20196;-70
2021/05/21 07:32:50;;;;;;;2.10;1.55;;;15.50;91.00;;;;;;5100671;28;20199;-70
2021/05/21 07:35:17;;;;;;;2.03;1.80;;;15.50;90.60;;;;;;5106291;28;20199;-70
2021/05/21 07:37:46;;;;;;;1.85;1.75;;;15.40;90.70;;;;;;5096284;28;20308;-70
2021/05/21 07:40:16;;;;;;;2.75;1.95;;;15.40;89.70;;;;;;5093359;28;20286;-70
2021/05/21 07:42:42;;;;;;;2.80;2.22;;;15.50;90.30;;;;;;5104722;28;20308;-70
2021/05/21 07:45:10;;;;;;;8.52;1.98;;;15.40;90.40;;;;;;5106704;28;20207;-70
2021/05/21 07:47:37;;;;;;;2.10;2.00;;;15.40;90.60;;;;;;5103843;28;20606;-70
2021/05/21 07:50:04;;;;;;;2.30;2.20;;;15.40;90.30;;;;;;5107277;28;20630;-70
2021/05/21 07:52:31;;;;;;;2.15;2.05;;;15.40;90.50;;;;;;5095886;28;20266;-73
2021/05/21 07:54:59;;;;;;;1.88;1.77;;;15.40;91.10;;;;;;5098073;28;20202;-71
2021/05/21 07:57:26;;;;;;;4.75;2.20;;;15.40;90.60;;;;;;5093318;28;20211;-71
2021/05/21 07:59:53;;;;;;;3.15;1.90;;;15.50;91.30;;;;;;5095694;28;20197;-71
2021/05/21 08:02:19;;;;;;;4.40;2.90;;;15.40;90.90;;;;;;5102619;28;20341;-71
2021/05/21 08:04:46;;;;;;;2.53;2.33;;;15.50;92.00;;;;;;5094014;28;20282;-71
2021/05/21 08:07:12;;;;;;;7.50;2.95;;;15.50;92.80;;;;;;5096081;28;20222;-71
2021/05/21 08:09:40;;;;;;;2.42;2.22;;;15.40;92.70;;;;;;5103932;28;20209;-71
2021/05/21 08:12:09;;;;;;;3.15;2.70;;;15.20;92.00;;;;;;5106010;28;20204;-71
2021/05/21 08:14:37;;;;;;;5.15;2.40;;;15.30;92.60;;;;;;5105627;28;20200;-71
2021/05/21 08:17:03;;;;;;;4.18;2.75;;;15.20;93.50;;;;;;5101359;28;20839;-71
2021/05/21 08:19:29;;;;;;;2.97;2.72;;;15.30;93.70;;;;;;5103645;28;20203;-71
2021/05/21 08:21:56;;;;;;;4.95;2.40;;;15.20;94.30;;;;;;5103465;28;20700;-71
2021/05/21 08:24:22;;;;;;;4.13;2.72;;;15.20;93.90;;;;;;5093520;28;20208;-71
2021/05/21 08:26:48;;;;;;;3.38;3.08;;;15.10;93.70;;;;;;5098096;28;20262;-71
2021/05/21 08:29:15;;;;;;;2.45;2.25;;;14.90;94.20;;;;;;5094718;28;20290;-71
2021/05/21 08:31:42;;;;;;;3.40;2.50;;;14.70;94.20;;;;;;5103088;28;20209;-71
2021/05/21 08:34:08;;;;;;;2.70;2.50;;;14.80;93.90;;;;;;5095987;28;20201;-71
2021/05/21 08:36:34;;;;;;;2.70;2.50;;;14.90;93.60;;;;;;5102666;28;21631;-71
2021/05/21 08:39:01;;;;;;;3.03;2.72;;;14.90;94.00;;;;;;5104208;28;20294;-71
2021/05/21 08:41:29;;;;;;;4.15;2.90;;;15.30;93.40;;;;;;5107511;28;20223;-71
2021/05/21 08:43:57;;;;;;;6.45;3.70;;;15.00;94.00;;;;;;5105284;28;20196;-71
2021/05/21 08:46:25;;;;;;;7.63;3.63;;;15.00;94.50;;;;;;5104615;28;20300;-71
2021/05/21 08:48:57;;;;;;;4.25;3.03;;;14.80;94.70;;;;;;5106120;28;20603;-72
2021/05/21 08:51:23;;;;;;;4.63;2.90;;;14.80;94.60;;;;;;5100095;28;20290;-71
2021/05/21 08:53:50;;;;;;;4.05;2.83;;;15.00;94.40;;;;;;5102884;28;20200;-71
2021/05/21 08:56:16;;;;;;;2.40;2.20;;;15.20;94.40;;;;;;5099799;28;20630;-71
2021/05/21 08:58:44;;;;;;;2.05;1.95;;;15.30;94.10;;;;;;5104722;27;20298;-71
2021/05/21 09:01:11;;;;;;;1.42;1.33;;;15.40;92.20;;;;;;5110561;27;20235;-71
2021/05/21 09:03:37;;;;;;;1.48;1.38;;;15.60;91.70;;;;;;5099289;28;20196;-70
2021/05/21 09:06:14;;;;;;;1.73;1.30;;;15.70;90.50;;;;;;5096700;28;20346;-70
2021/05/21 09:08:43;;;;;;;1.90;1.40;;;15.70;90.70;;;;;;5102706;28;20222;-71
2021/05/21 09:11:31;;;;;;;1.92;1.50;;;15.80;91.00;;;;;;5104848;28;20277;-70
2021/05/21 09:14:06;;;;;;;3.88;1.55;;;15.90;90.80;;;;;;5101757;28;20203;-70
2021/05/21 09:16:34;;;;;;;1.15;1.15;;;15.80;90.20;;;;;;5103018;28;20920;-71
2021/05/21 09:19:05;;;;;;;1.48;1.38;;;15.80;90.10;;;;;;5099034;28;20223;-71
2021/05/21 09:21:55;;;;;;;1.42;1.33;;;15.80;90.30;;;;;;5099502;28;20231;-70
2021/05/21 09:24:24;;;;;;;1.35;1.13;;;15.80;90.00;;;;;;5098601;28;20260;-69
2021/05/21 09:26:52;;;;;;;2.58;1.17;;;15.80;89.60;;;;;;5105185;28;20203;-70
2021/05/21 09:29:36;;;;;;;2.05;1.42;;;15.70;90.10;;;;;;5100204;28;20239;-69
2021/05/21 09:32:16;;;;;;;1.42;1.33;;;15.70;90.10;;;;;;5103249;28;20800;-69
2021/05/21 09:34:46;;;;;;;1.38;0.90;;;15.70;90.10;;;;;;5097412;28;20291;-71
2021/05/21 09:37:22;;;;;;;1.10;1.00;;;15.70;89.70;;;;;;5103451;28;20212;-69
2021/05/21 09:40:16;;;;;;;1.50;1.40;;;15.70;90.00;;;;;;5104996;28;20298;-67
2021/05/21 09:43:02;;;;;;;1.65;1.42;;;15.80;90.00;;;;;;5051120;28;20649;-69
2021/05/21 09:45:32;;;;;;;1.65;1.45;;;15.80;90.10;;;;;;5092749;28;20526;-69
2021/05/21 09:48:00;;;;;;;1.30;1.20;;;15.90;90.30;;;;;;5101608;28;20196;-69
2021/05/21 09:50:36;;;;;;;1.17;1.00;;;15.80;89.80;;;;;;5092938;28;20780;-69
2021/05/21 09:53:07;;;;;;;2.10;1.13;;;15.90;90.40;;;;;;5102537;28;20293;-71
2021/05/21 09:55:38;;;;;;;1.10;1.00;;;16.00;90.10;;;;;;5104785;28;20675;-70
2021/05/21 09:58:05;;;;;;;2.72;0.70;;;15.90;90.30;;;;;;5098923;28;20216;-69
2021/05/21 10:00:31;;;;;;;1.33;1.23;;;15.90;90.30;;;;;;5094747;28;20203;-69
2021/05/21 10:02:58;;;;;;;0.88;0.73;;;15.90;90.30;;;;;;5100248;28;20223;-71
2021/05/21 10:05:24;;;;;;;1.65;1.13;;;15.80;90.20;;;;;;5099733;28;20204;-71
2021/05/21 10:07:53;;;;;;;1.10;1.00;;;15.70;90.40;;;;;;5105004;28;20235;-71
2021/05/21 10:10:23;;;;;;;1.20;1.15;;;15.70;90.20;;;;;;5104144;28;20211;-71
2021/05/21 10:12:50;;;;;;;0.98;0.98;;;15.70;90.30;;;;;;5104128;28;20242;-70
2021/05/21 10:15:17;;;;;;;1.38;1.20;;;15.60;89.90;;;;;;5104572;28;20211;-70
2021/05/21 10:17:45;;;;;;;1.00;1.00;;;15.60;89.50;;;;;;5105295;28;20203;-71
2021/05/21 10:20:14;;;;;;;1.50;1.20;;;15.60;90.10;;;;;;5104723;28;20544;-72
2021/05/21 10:22:42;;;;;;;0.95;0.95;;;15.60;90.50;;;;;;5102031;28;20238;-73
2021/05/21 10:25:13;;;;;;;1.30;1.20;;;15.70;90.60;;;;;;5106070;28;20294;-74
2021/05/21 10:27:44;;;;;;;3.15;0.85;;;15.70;90.90;;;;;;5108610;28;20206;-71
2021/05/21 10:30:21;;;;;;;1.40;1.25;;;15.70;90.60;;;;;;5104632;28;20210;-71
2021/05/21 10:32:49;;;;;;;1.00;0.90;;;15.70;90.80;;;;;;5106998;28;20206;-71
2021/05/21 10:35:18;;;;;;;1.08;1.08;;;15.80;91.10;;;;;;5101194;28;20249;-71
2021/05/21 10:37:45;;;;;;;2.03;1.02;;;15.90;90.90;;;;;;5098542;28;20212;-71
2021/05/21 10:40:14;;;;;;;1.20;1.15;;;16.00;90.80;;;;;;5103063;28;20273;-71
2021/05/21 10:42:46;;;;;;;2.47;1.30;;;16.20;90.90;;;;;;5101769;28;20230;-70
2021/05/21 10:45:15;;;;;;;2.00;1.58;;;16.20;90.70;;;;;;5098500;28;20284;-70
2021/05/21 10:47:45;;;;;;;1.73;1.60;;;16.20;91.10;;;;;;5102164;28;20215;-70
2021/05/21 10:50:20;;;;;;;1.73;1.10;;;16.20;91.80;;;;;;5097923;28;20196;-71
2021/05/21 10:52:56;;;;;;;1.40;1.30;;;16.30;92.10;;;;;;5103229;28;20649;-71
2021/05/21 10:55:39;;;;;;;1.33;1.23;;;16.40;91.70;;;;;;5102891;28;20279;-71
2021/05/21 10:58:06;;;;;;;1.40;1.30;;;16.50;92.10;;;;;;5098650;28;20678;-71
2021/05/21 11:00:34;;;;;;;2.10;1.38;;;16.50;91.50;;;;;;5102780;28;20648;-71
2021/05/21 11:03:01;;;;;;;1.10;1.10;;;16.40;91.50;;;;;;5099317;28;20288;-70
2021/05/21 11:05:30;;;;;;;1.20;0.90;;;16.50;91.70;;;;;;5102762;28;20283;-70
2021/05/21 11:07:57;;;;;;;1.10;1.10;;;16.60;90.80;;;;;;5100763;28;20218;-70
2021/05/21 11:10:29;;;;;;;0.80;0.80;;;16.70;90.90;;;;;;5097803;28;20204;-71
2021/05/21 11:12:59;;;;;;;1.15;0.90;;;16.80;90.00;;;;;;5102733;28;20656;-70
2021/05/21 11:15:40;;;;;;;1.17;1.08;;;16.80;89.40;;;;;;5101743;28;20251;-71
2021/05/21 11:18:30;;;;;;;1.35;0.93;;;16.80;89.00;;;;;;5099131;28;20291;-71
2021/05/21 11:21:04;;;;;;;2.28;1.13;;;16.90;88.70;;;;;;5098708;28;20205;-71
2021/05/21 11:23:35;;;;;;;2.25;1.05;;;17.00;88.30;;;;;;5097683;28;20227;-71
2021/05/21 11:26:18;;;;;;;2.33;0.95;;;17.00;87.40;;;;;;5108537;28;20215;-71
2021/05/21 11:28:46;;;;;;;2.10;0.80;;;16.90;88.20;;;;;;5099627;28;20218;-70
2021/05/21 11:31:22;;;;;;;0.90;0.90;;;16.90;87.90;;;;;;5107280;28;20260;-71
2021/05/21 11:33:52;;;;;;;1.17;1.17;;;17.00;88.50;;;;;;5097553;28;20707;-71
2021/05/21 11:36:20;;;;;;;1.60;0.80;;;17.30;88.30;;;;;;5092859;28;20219;-71
2021/05/21 11:38:47;;;;;;;0.70;0.70;;;17.50;89.00;;;;;;5097571;28;20203;-71
2021/05/21 11:41:14;;;;;;;1.05;1.00;;;17.70;88.50;;;;;;5103232;28;20207;-71
2021/05/21 11:43:42;;;;;;;1.25;0.82;;;17.90;87.70;;;;;;5108566;28;20224;-72
2021/05/21 11:46:15;;;;;;;1.38;0.77;;;18.10;88.00;;;;;;5100187;28;20204;-71
2021/05/21 11:48:42;;;;;;;0.80;0.80;;;18.40;85.90;;;;;;5100124;28;20306;-69
2021/05/21 11:51:14;;;;;;;1.00;0.75;;;18.30;84.30;;;;;;5107432;28;20203;-70
2021/05/21 11:53:52;;;;;;;0.65;0.65;;;18.40;85.30;;;;;;5097388;28;20204;-71
2021/05/21 11:56:27;;;;;;;1.10;1.00;;;18.40;83.40;;;;;;5091311;28;20200;-70
2021/05/21 11:59:01;;;;;;;0.70;0.70;;;18.50;84.40;;;;;;5096364;28;20207;-69
2021/05/21 12:01:29;;;;;;;1.00;0.90;;;18.40;84.20;;;;;;5105263;28;20211;-72
2021/05/21 12:03:56;;;;;;;0.90;0.90;;;18.30;83.50;;;;;;5106614;28;20248;-72
2021/05/21 12:06:22;;;;;;;2.70;1.00;;;18.20;84.90;;;;;;5103236;28;20286;-71
2021/05/21 12:08:51;;;;;;;0.80;0.80;;;18.20;84.40;;;;;;5091180;27;20210;-72
2021/05/21 12:11:17;;;;;;;1.00;1.00;;;17.90;85.20;;;;;;5111828;27;20199;-69
2021/05/21 12:13:44;;;;;;;0.98;0.88;;;17.60;83.10;;;;;;5099129;28;20240;-71
2021/05/21 12:16:12;;;;;;;0.95;0.95;;;17.40;84.50;;;;;;5097974;28;20932;-71
2021/05/21 12:18:40;;;;;;;1.00;1.00;;;17.40;84.00;;;;;;5101119;28;20286;-71
2021/05/21 12:21:07;;;;;;;1.45;1.00;;;17.40;84.80;;;;;;5101131;28;20204;-71
2021/05/21 12:23:38;;;;;;;0.90;0.90;;;17.50;84.20;;;;;;5097003;28;20745;-70
2021/05/21 12:26:05;;;;;;;1.95;1.02;;;17.60;85.10;;;;;;5098932;28;20203;-71
2021/05/21 12:28:33;;;;;;;1.60;0.85;;;17.60;83.50;;;;;;5096346;28;20203;-71
2021/05/21 12:31:03;;;;;;;0.85;0.85;;;17.70;83.80;;;;;;5098213;28;20646;-71
2021/05/21 12:33:34;;;;;;;0.90;0.90;;;17.70;83.90;;;;;;5098346;28;20210;-71
2021/05/21 12:36:06;;;;;;;0.77;0.77;;;17.70;83.10;;;;;;5090038;28;20199;-70
2021/05/21 12:38:33;;;;;;;0.50;0.50;;;17.70;83.70;;;;;;5098632;28;20200;-70
2021/05/21 12:41:01;;;;;;;4.20;0.95;;;17.80;82.00;;;;;;5107357;28;20675;-74
2021/05/21 12:43:28;;;;;;;1.10;0.80;;;17.70;81.00;;;;;;5103425;28;21023;-72
2021/05/21 12:46:04;;;;;;;1.35;0.88;;;17.60;80.60;;;;;;5092488;28;20330;-71
2021/05/21 12:48:32;;;;;;;1.25;0.73;;;17.50;81.40;;;;;;5095799;28;20292;-70
2021/05/21 12:51:11;;;;;;;3.15;1.17;;;17.60;81.80;;;;;;5107310;28;20680;-71
2021/05/21 12:53:37;;;;;;;1.50;0.70;;;17.70;79.90;;;;;;5106945;28;20214;-71